createdAt,value
2023-03-18T00:00:21.987Z,16.77
2023-03-18T00:04:22.632Z,16.37
2023-03-18T00:08:24.117Z,14.23
2023-03-18T00:12:28.104Z,20.07
2023-03-18T00:16:28.766Z,17.17
2023-03-18T00:20:38.888Z,15.63
2023-03-18T00:24:39.949Z,19.37
2023-03-18T00:28:43.114Z,20.57
2023-03-18T00:32:44.296Z,17.30
2023-03-18T00:36:47.901Z,15.00
2023-03-18T00:40:53.685Z,17.47
2023-03-18T00:44:56.880Z,19.10
2023-03-18T00:49:00.562Z,16.13
2023-03-18T00:53:00.855Z,17.17
2023-03-18T00:57:01.858Z,15.63
2023-03-18T01:01:05.660Z,16.33
2023-03-18T01:05:07.328Z,14.43
2023-03-18T01:09:11.969Z,12.70
2023-03-18T01:13:13.554Z,12.80
2023-03-18T01:17:18.340Z,13.30
2023-03-18T01:21:23.183Z,13.87
2023-03-18T01:25:30.887Z,16.87
2023-03-18T01:29:31.797Z,13.30
2023-03-18T01:33:40.523Z,12.27
2023-03-18T01:37:42.234Z,13.67
2023-03-18T01:41:46.426Z,13.17
2023-03-18T01:45:54.488Z,17.57
2023-03-18T01:50:00.176Z,11.37
2023-03-18T01:54:07.563Z,12.37
2023-03-18T01:58:13.293Z,13.37
2023-03-18T02:02:18.638Z,9.63
2023-03-18T02:06:22.237Z,14.67
2023-03-18T02:10:33.775Z,12.17
2023-03-18T02:14:34.575Z,14.77
2023-03-18T02:18:43.779Z,12.93
2023-03-18T02:22:53.616Z,11.53
2023-03-18T02:27:01.656Z,15.13
2023-03-18T02:31:18.498Z,15.00
2023-03-18T02:35:20.755Z,13.00
2023-03-18T02:39:22.393Z,14.80
2023-03-18T02:43:30.391Z,11.47
2023-03-18T02:47:37.084Z,11.83
2023-03-18T02:51:39.725Z,12.53
2023-03-18T02:55:41.763Z,15.53
2023-03-18T02:59:43.744Z,13.20
2023-03-18T03:03:47.289Z,15.30
2023-03-18T03:07:47.586Z,10.87
2023-03-18T03:11:50.194Z,12.37
2023-03-18T03:15:56.082Z,15.03
2023-03-18T03:19:59.362Z,17.50
2023-03-18T03:24:00.407Z,13.03
2023-03-18T03:28:01.240Z,18.13
2023-03-18T03:32:02.292Z,15.70
2023-03-18T03:36:05.696Z,15.33
2023-03-18T03:40:08.368Z,16.27
2023-03-18T03:44:09.348Z,13.43
2023-03-18T03:48:14.206Z,14.27
2023-03-18T03:52:20.789Z,11.03
2023-03-18T03:56:26.182Z,13.77
2023-03-18T04:00:27.778Z,18.77
2023-03-18T04:04:28.377Z,15.13
2023-03-18T04:08:32.648Z,12.10
2023-03-18T04:12:33.555Z,12.53
2023-03-18T04:16:35.917Z,13.53
2023-03-18T04:20:38.168Z,13.73
2023-03-18T04:24:49.865Z,12.07
2023-03-18T04:28:50.394Z,15.33
2023-03-18T04:32:52.060Z,12.13
2023-03-18T04:36:52.875Z,16.20
2023-03-18T04:40:56.520Z,14.57
2023-03-18T04:44:58.005Z,12.27
2023-03-18T04:49:01.056Z,12.97
2023-03-18T04:53:01.904Z,11.40
2023-03-18T04:57:07.790Z,12.43
2023-03-18T05:01:13.999Z,12.20
2023-03-18T05:05:15.071Z,14.70
2023-03-18T05:09:21.693Z,17.50
2023-03-18T05:13:25.111Z,19.13
2023-03-18T05:17:26.867Z,17.07
2023-03-18T05:21:31.624Z,16.40
2023-03-18T05:25:34.298Z,14.07
2023-03-18T05:29:38.496Z,16.47
2023-03-18T05:33:45.218Z,13.63
2023-03-18T05:37:46.811Z,14.80
2023-03-18T05:41:48.086Z,12.00
2023-03-18T05:45:58.577Z,14.60
2023-03-18T05:50:16.681Z,15.73
2023-03-18T05:54:18.993Z,11.80
2023-03-18T05:58:19.645Z,15.37
2023-03-18T06:02:27.144Z,13.73
2023-03-18T06:06:27.966Z,15.83
2023-03-18T06:10:29.460Z,29.10
2023-03-18T06:14:31.564Z,14.83
2023-03-18T06:18:38.107Z,19.50
2023-03-18T06:22:38.964Z,18.40
2023-03-18T06:26:39.978Z,18.00
2023-03-18T06:30:40.785Z,19.50
2023-03-18T06:34:47.440Z,19.97
2023-03-18T06:38:48.451Z,16.77
2023-03-18T06:42:50.263Z,13.73
2023-03-18T06:47:22.171Z,14.33
2023-03-18T06:51:33.713Z,14.87
2023-03-18T06:55:35.132Z,14.63
2023-03-18T06:59:37.722Z,13.67
2023-03-18T07:03:39.188Z,15.93
2023-03-18T07:07:44.938Z,20.17
2023-03-18T07:11:46.190Z,23.23
2023-03-18T07:15:51.107Z,16.47
2023-03-18T07:19:52.040Z,13.57
2023-03-18T07:23:55.782Z,14.43
2023-03-18T07:27:59.759Z,17.20
2023-03-18T07:31:59.955Z,14.77
2023-03-18T07:36:00.594Z,12.93
2023-03-18T07:40:04.170Z,12.73
2023-03-18T07:44:05.154Z,20.77
2023-03-18T07:48:06.193Z,17.63
2023-03-18T07:52:07.001Z,35.87
2023-03-18T07:56:11.811Z,34.70
2023-03-18T08:00:16.110Z,23.27
2023-03-18T08:04:16.607Z,25.00
2023-03-18T08:08:17.107Z,17.43
2023-03-18T08:12:20.293Z,19.50
2023-03-18T08:16:21.033Z,19.73
2023-03-18T08:20:23.248Z,13.33
2023-03-18T08:24:24.686Z,17.93
2023-03-18T08:28:28.989Z,20.80
2023-03-18T08:32:29.475Z,17.93
2023-03-18T08:36:30.319Z,18.57
2023-03-18T08:40:31.165Z,16.33
2023-03-18T08:44:34.800Z,34.47
2023-03-18T08:48:38.445Z,22.87
2023-03-18T08:52:41.552Z,22.33
2023-03-18T08:56:43.723Z,22.10
2023-03-18T09:00:48.286Z,19.50
2023-03-18T09:04:50.537Z,24.05
2023-03-18T09:08:50.948Z,21.83
2023-03-18T09:12:52.570Z,23.40
2023-03-18T09:16:55.820Z,19.73
2023-03-18T09:20:56.748Z,20.10
2023-03-18T09:24:57.211Z,14.45
2023-03-18T09:28:57.706Z,13.45
2023-03-18T09:33:01.906Z,12.18
2023-03-18T09:37:02.543Z,12.65
2023-03-18T09:41:21.579Z,12.85
2023-03-18T09:45:31.662Z,12.48
2023-03-18T09:50:06.817Z,16.55
2023-03-18T09:54:16.034Z,10.32
2023-03-18T09:58:31.442Z,11.57
2023-03-18T10:02:41.051Z,10.88
2023-03-18T10:06:48.526Z,9.18
2023-03-18T10:10:52.149Z,11.43
2023-03-18T10:15:10.334Z,15.95
2023-03-18T10:19:12.928Z,10.52
2023-03-18T10:23:35.071Z,11.85
2023-03-18T10:27:50.355Z,11.18
2023-03-18T10:32:11.025Z,12.75
2023-03-18T10:36:20.738Z,49.35
2023-03-18T10:40:38.559Z,16.02
2023-03-18T10:44:45.939Z,10.88
2023-03-18T10:48:54.488Z,12.18
2023-03-18T10:53:07.210Z,11.77
2023-03-18T10:57:17.076Z,16.05
2023-03-18T11:01:23.370Z,13.50
2023-03-18T11:05:29.183Z,14.02
2023-03-18T11:09:36.470Z,9.27
2023-03-18T11:13:41.449Z,13.65
2023-03-18T11:17:43.503Z,11.65
2023-03-18T11:21:45.061Z,9.70
2023-03-18T11:25:49.637Z,11.75
2023-03-18T11:30:01.279Z,12.32
2023-03-18T11:34:03.322Z,10.68
2023-03-18T11:38:07.432Z,13.73
2023-03-18T11:42:22.341Z,10.45
2023-03-18T11:46:29.503Z,10.95
2023-03-18T11:50:42.463Z,8.93
2023-03-18T11:55:12.017Z,7.57
2023-03-18T11:59:39.993Z,6.82
2023-03-18T12:04:37.895Z,15.88
2023-03-18T12:08:57.123Z,10.10
2023-03-18T12:13:22.647Z,9.57
2023-03-18T12:17:41.159Z,8.93
2023-03-18T12:22:11.787Z,10.57
2023-03-18T12:26:21.225Z,12.15
2023-03-18T12:30:43.395Z,10.45
2023-03-18T12:35:09.316Z,6.50
2023-03-18T12:39:53.452Z,9.02
2023-03-18T12:44:11.902Z,6.70
2023-03-18T12:48:21.940Z,8.85
2023-03-18T12:52:35.996Z,10.27
2023-03-18T12:56:51.124Z,6.55
2023-03-18T13:00:59.960Z,6.72
2023-03-18T13:05:07.181Z,7.90
2023-03-18T13:09:22.018Z,6.55
2023-03-18T13:13:27.834Z,9.98
2023-03-18T13:17:36.830Z,7.45
2023-03-18T13:21:46.159Z,5.70
2023-03-18T13:26:07.144Z,7.05
2023-03-18T13:30:24.083Z,10.05
2023-03-18T13:34:57.720Z,7.30
2023-03-18T13:39:29.742Z,7.13
2023-03-18T13:43:32.842Z,6.35
2023-03-18T13:47:41.368Z,8.30
2023-03-18T13:51:56.418Z,12.13
2023-03-18T13:56:06.479Z,8.50
2023-03-18T14:00:33.402Z,8.05
2023-03-18T14:04:50.469Z,8.30
2023-03-18T14:08:54.120Z,5.88
2023-03-18T14:12:54.575Z,6.53
2023-03-18T14:16:56.431Z,10.38
2023-03-18T14:21:05.212Z,6.45
2023-03-18T14:25:37.929Z,7.07
2023-03-18T14:29:43.687Z,10.77
2023-03-18T14:34:01.851Z,7.00
2023-03-18T14:38:17.067Z,7.38
2023-03-18T14:42:32.256Z,7.80
2023-03-18T14:46:39.227Z,10.00
2023-03-18T14:50:45.426Z,7.68
2023-03-18T14:54:49.743Z,6.43
2023-03-18T14:58:53.445Z,5.38
2023-03-18T15:03:03.894Z,6.47
2023-03-18T15:07:11.257Z,7.22
2023-03-18T15:11:16.599Z,5.05
2023-03-18T15:15:19.893Z,5.90
2023-03-18T15:19:22.135Z,5.40
2023-03-18T15:23:32.292Z,4.40
2023-03-18T15:27:38.330Z,5.53
2023-03-18T15:31:46.254Z,8.40
2023-03-18T15:35:48.734Z,6.93
2023-03-18T15:39:48.805Z,5.15
2023-03-18T15:43:54.068Z,4.03
2023-03-18T15:47:54.406Z,11.35
2023-03-18T15:52:03.188Z,10.63
2023-03-18T15:56:19.860Z,8.77
2023-03-18T16:00:24.546Z,9.50
2023-03-18T16:04:25.727Z,6.78
2023-03-18T16:08:27.345Z,9.38
2023-03-18T16:12:32.520Z,5.13
2023-03-18T16:16:36.950Z,10.48
2023-03-18T16:20:38.077Z,11.77
2023-03-18T16:24:41.877Z,6.70
2023-03-18T16:28:43.920Z,8.40
2023-03-18T16:32:47.431Z,8.27
2023-03-18T16:36:50.885Z,7.07
2023-03-18T16:40:53.792Z,5.15
2023-03-18T16:44:55.028Z,6.57
2023-03-18T16:48:58.496Z,6.22
2023-03-18T16:52:58.832Z,8.43
2023-03-18T16:57:02.225Z,5.10
2023-03-18T17:01:04.992Z,6.07
2023-03-18T17:05:10.086Z,11.15
2023-03-18T17:09:10.318Z,8.57
2023-03-18T17:13:18.485Z,7.05
2023-03-18T17:17:28.235Z,6.75
2023-03-18T17:21:33.542Z,6.43
2023-03-18T17:25:34.668Z,4.78
2023-03-18T17:29:34.914Z,7.40
2023-03-18T17:33:37.912Z,8.35
2023-03-18T17:37:40.558Z,8.32
2023-03-18T17:41:40.784Z,8.18
2023-03-18T17:45:41.023Z,8.52
2023-03-18T17:49:41.884Z,8.95
2023-03-18T17:53:51.426Z,9.02
2023-03-18T17:57:52.181Z,5.90
2023-03-18T18:01:54.002Z,10.68
2023-03-18T18:05:55.366Z,9.53
2023-03-18T18:10:01.193Z,7.30
2023-03-18T18:14:13.467Z,7.93
2023-03-18T18:18:40.137Z,9.10
2023-03-18T18:23:00.144Z,35.13
2023-03-18T18:27:14.686Z,26.07
2023-03-18T18:31:17.666Z,19.40
2023-03-18T18:35:21.285Z,20.93
2023-03-18T18:39:21.900Z,21.37
2023-03-18T18:43:26.042Z,21.00
2023-03-18T18:47:26.101Z,21.53
2023-03-18T18:51:28.467Z,28.50
2023-03-18T18:55:41.237Z,21.60
2023-03-18T18:59:53.695Z,21.20
2023-03-18T19:04:00.233Z,25.63
2023-03-18T19:08:07.024Z,25.67
2023-03-18T19:12:23.831Z,26.40
2023-03-18T19:16:45.733Z,27.27
2023-03-18T19:20:52.954Z,24.73
2023-03-18T19:24:53.070Z,26.90
2023-03-18T19:28:59.356Z,28.23
2023-03-18T19:33:02.503Z,32.33
2023-03-18T19:37:06.040Z,28.07
2023-03-18T19:41:07.123Z,22.03
2023-03-18T19:45:11.793Z,23.77
2023-03-18T19:49:26.406Z,18.77
2023-03-18T19:53:30.369Z,23.83
2023-03-18T19:57:34.075Z,24.57
2023-03-18T20:01:34.253Z,24.47
2023-03-18T20:05:37.051Z,27.57
2023-03-18T20:09:37.328Z,24.67
2023-03-18T20:13:37.411Z,26.53
2023-03-18T20:17:41.624Z,23.50
2023-03-18T20:21:45.059Z,19.10
2023-03-18T20:25:48.330Z,22.50
2023-03-18T20:29:49.997Z,22.60
2023-03-18T20:33:50.894Z,20.13
2023-03-18T20:37:53.758Z,23.87
2023-03-18T20:41:53.968Z,21.67
2023-03-18T20:45:55.767Z,17.67
2023-03-18T20:49:55.857Z,16.13
2023-03-18T20:53:58.566Z,14.20
2023-03-18T20:57:58.866Z,18.23
2023-03-18T21:01:59.012Z,14.77
2023-03-18T21:06:03.572Z,19.17
2023-03-18T21:10:06.906Z,17.33
2023-03-18T21:14:07.250Z,18.63
2023-03-18T21:18:07.827Z,26.03
2023-03-18T21:22:08.163Z,25.60
2023-03-18T21:26:10.907Z,25.23
2023-03-18T21:30:13.891Z,24.90
2023-03-18T21:34:14.573Z,20.03
2023-03-18T21:38:14.677Z,25.70
2023-03-18T21:42:24.819Z,26.30
2023-03-18T21:46:29.853Z,23.37
2023-03-18T21:50:30.086Z,25.60
2023-03-18T21:54:30.653Z,45.37
2023-03-18T21:58:33.334Z,41.20
2023-03-18T22:02:36.651Z,36.97
2023-03-18T22:06:37.372Z,36.40
2023-03-18T22:10:37.829Z,42.87
2023-03-18T22:14:40.456Z,33.20
2023-03-18T22:18:40.554Z,30.33
2023-03-18T22:22:40.629Z,28.83
2023-03-18T22:26:40.682Z,27.20
2023-03-18T22:30:46.553Z,29.30
2023-03-18T22:34:46.633Z,22.63
2023-03-18T22:38:47.271Z,17.43
2023-03-18T22:42:48.904Z,23.37
2023-03-18T22:46:51.627Z,22.17
2023-03-18T22:50:53.688Z,22.47
2023-03-18T22:54:58.511Z,25.00
2023-03-18T22:58:58.611Z,22.40
2023-03-18T23:03:01.777Z,21.47
2023-03-18T23:07:01.980Z,22.30
2023-03-18T23:11:04.381Z,19.87
2023-03-18T23:15:05.735Z,22.37
2023-03-18T23:19:08.342Z,25.40
2023-03-18T23:23:08.511Z,26.23
2023-03-18T23:27:09.313Z,26.30
2023-03-18T23:31:09.700Z,20.43
2023-03-18T23:35:13.459Z,20.80
2023-03-18T23:39:13.622Z,17.37
2023-03-18T23:43:13.707Z,20.87
2023-03-18T23:47:15.983Z,18.73
2023-03-18T23:51:18.871Z,15.57
2023-03-18T23:55:33.601Z,16.90
2023-03-18T23:59:34.902Z,14.97
